createdAt,value
2023-08-17T00:00:14.920Z,94151.17
2023-08-17T00:01:08.313Z,94144.34
2023-08-17T00:01:42.721Z,94149.84
2023-08-17T00:02:16.069Z,94147.82
2023-08-17T00:02:49.418Z,94147.92
2023-08-17T00:03:22.864Z,94147.18
2023-08-17T00:03:56.237Z,94145.32
2023-08-17T00:04:29.629Z,94146.60
2023-08-17T00:05:03.094Z,94148.14
2023-08-17T00:05:36.781Z,94145.06
2023-08-17T00:06:09.970Z,94144.48
2023-08-17T00:06:43.898Z,94144.00
2023-08-17T00:07:17.165Z,94145.38
2023-08-17T00:07:50.455Z,94146.77
2023-08-17T00:08:24.037Z,94148.56
2023-08-17T00:08:57.551Z,94145.54
2023-08-17T00:09:31.029Z,94150.23
2023-08-17T00:10:04.625Z,94150.22
2023-08-17T00:10:40.014Z,94150.13
2023-08-17T00:11:14.866Z,94147.16
2023-08-17T00:11:51.363Z,94148.34
2023-08-17T00:12:29.777Z,94149.06
2023-08-17T00:13:05.476Z,94144.25
2023-08-17T00:13:38.786Z,94144.52
2023-08-17T00:14:12.139Z,94141.59
2023-08-17T00:14:45.553Z,94142.81
2023-08-17T00:15:18.962Z,94140.16
2023-08-17T00:15:52.575Z,94139.72
2023-08-17T00:16:26.388Z,94139.41
2023-08-17T00:16:59.831Z,94137.61
2023-08-17T00:17:33.201Z,94137.60
2023-08-17T00:18:06.693Z,94138.73
2023-08-17T00:18:40.214Z,94140.54
2023-08-17T00:19:14.060Z,94141.77
2023-08-17T00:19:48.308Z,94141.66
2023-08-17T00:20:21.615Z,94142.18
2023-08-17T00:20:54.926Z,94142.77
2023-08-17T00:21:28.283Z,94139.85
2023-08-17T00:22:01.759Z,94137.77
2023-08-17T00:22:35.247Z,94138.77
2023-08-17T00:23:08.673Z,94137.27
2023-08-17T00:23:42.400Z,94135.70
2023-08-17T00:24:15.699Z,94132.93
2023-08-17T00:24:49.101Z,94133.30
2023-08-17T00:25:22.418Z,94131.17
2023-08-17T00:25:56.013Z,94131.30
2023-08-17T00:26:29.839Z,94127.45
2023-08-17T00:27:04.020Z,94127.02
2023-08-17T00:27:37.449Z,94127.23
2023-08-17T00:28:10.778Z,94125.85
2023-08-17T00:28:45.533Z,94124.69
2023-08-17T00:29:18.893Z,94124.21
2023-08-17T00:29:52.314Z,94123.10
2023-08-17T00:30:25.633Z,94121.56
2023-08-17T00:30:59.096Z,94121.88
2023-08-17T00:31:32.532Z,94119.39
2023-08-17T00:32:07.312Z,94121.09
2023-08-17T00:32:42.932Z,94118.13
2023-08-17T00:33:16.372Z,94108.35
2023-08-17T00:33:49.850Z,94115.50
2023-08-17T00:34:23.348Z,94109.61
2023-08-17T00:34:56.818Z,94115.81
2023-08-17T00:35:30.350Z,94106.60
2023-08-17T00:36:04.243Z,94110.72
2023-08-17T00:36:37.606Z,94113.33
2023-08-17T00:37:10.920Z,94110.14
2023-08-17T00:37:44.400Z,94111.85
2023-08-17T00:38:17.804Z,94110.87
2023-08-17T00:38:51.916Z,94110.86
2023-08-17T00:39:25.237Z,94110.48
2023-08-17T00:39:58.653Z,94107.69
2023-08-17T00:40:32.025Z,94113.25
2023-08-17T00:41:05.355Z,94114.67
2023-08-17T00:41:38.778Z,94111.23
2023-08-17T00:42:12.231Z,94111.55
2023-08-17T00:42:45.705Z,94108.79
2023-08-17T00:43:19.211Z,94109.96
2023-08-17T00:43:54.793Z,94112.02
2023-08-17T00:44:28.285Z,94111.71
2023-08-17T00:45:01.762Z,94111.51
2023-08-17T00:45:36.819Z,94111.08
2023-08-17T00:46:10.720Z,94114.20
2023-08-17T00:46:44.969Z,94113.95
2023-08-17T00:47:20.224Z,94112.88
2023-08-17T00:47:59.845Z,94110.84
2023-08-17T00:48:34.189Z,94113.02
2023-08-17T00:49:11.521Z,94110.63
2023-08-17T00:49:45.442Z,94109.20
2023-08-17T00:50:19.208Z,94110.53
2023-08-17T00:50:54.649Z,94112.91
2023-08-17T00:51:28.722Z,94106.92
2023-08-17T00:52:04.489Z,94107.55
2023-08-17T00:52:39.096Z,94107.14
2023-08-17T00:53:14.794Z,94109.85
2023-08-17T00:53:48.358Z,94112.39
2023-08-17T00:54:27.182Z,94112.55
2023-08-17T00:55:02.700Z,94111.17
2023-08-17T00:55:37.697Z,94112.60
2023-08-17T00:56:11.313Z,94114.20
2023-08-17T00:56:44.827Z,94113.35
2023-08-17T00:57:18.538Z,94116.49
2023-08-17T00:57:53.422Z,94114.42
2023-08-17T00:58:28.033Z,94114.21
2023-08-17T00:59:01.510Z,94112.79
2023-08-17T00:59:37.069Z,94117.04
2023-08-17T01:00:15.869Z,94114.13
2023-08-17T01:00:52.116Z,94116.45
2023-08-17T01:01:25.607Z,94117.61
2023-08-17T01:01:58.942Z,94118.15
2023-08-17T01:02:32.977Z,94117.67
2023-08-17T01:03:06.522Z,94116.71
2023-08-17T01:03:45.067Z,94117.10
2023-08-17T01:04:18.585Z,94115.85
2023-08-17T01:04:53.483Z,94121.83
2023-08-17T01:05:27.091Z,94117.85
2023-08-17T01:06:03.977Z,94120.14
2023-08-17T01:06:37.936Z,94121.41
2023-08-17T01:07:12.334Z,94122.63
2023-08-17T01:07:45.729Z,94122.58
2023-08-17T01:08:19.273Z,94119.66
2023-08-17T01:08:52.825Z,94120.83
2023-08-17T01:09:26.212Z,94125.11
2023-08-17T01:10:00.635Z,94121.63
2023-08-17T01:10:52.706Z,94121.33
2023-08-17T01:11:25.986Z,94120.80
2023-08-17T01:12:15.533Z,94119.59
2023-08-17T01:12:57.648Z,94121.86
2023-08-17T01:13:42.849Z,94119.10
2023-08-17T01:14:22.067Z,94117.25
2023-08-17T01:15:04.810Z,94118.63
2023-08-17T01:15:47.287Z,94115.77
2023-08-17T01:16:32.653Z,94115.77
2023-08-17T01:17:13.978Z,94114.13
2023-08-17T01:18:02.208Z,94112.85
2023-08-17T01:18:38.271Z,94113.22
2023-08-17T01:19:19.987Z,94112.37
2023-08-17T01:19:55.648Z,94112.80
2023-08-17T01:20:30.466Z,94113.80
2023-08-17T01:21:07.329Z,94119.42
2023-08-17T01:21:50.655Z,94116.55
2023-08-17T01:22:24.384Z,94115.91
2023-08-17T01:23:07.183Z,94116.93
2023-08-17T01:23:40.643Z,94117.64
2023-08-17T01:24:13.995Z,94118.65
2023-08-17T01:24:47.293Z,94117.65
2023-08-17T01:25:24.600Z,94115.79
2023-08-17T01:25:59.014Z,94115.48
2023-08-17T01:26:32.321Z,94113.14
2023-08-17T01:27:08.696Z,94111.77
2023-08-17T01:27:45.934Z,94113.20
2023-08-17T01:28:19.323Z,94113.95
2023-08-17T01:28:52.792Z,94110.51
2023-08-17T01:29:26.670Z,94106.80
2023-08-17T01:30:00.204Z,94106.05
2023-08-17T01:30:50.349Z,94111.73
2023-08-17T01:31:36.019Z,94107.08
2023-08-17T01:32:38.863Z,94102.20
2023-08-17T01:33:15.314Z,94106.67
2023-08-17T01:33:53.862Z,94107.69
2023-08-17T01:34:29.291Z,94104.39
2023-08-17T01:35:18.592Z,94107.38
2023-08-17T01:36:05.433Z,94111.20
2023-08-17T01:36:45.268Z,94111.52
2023-08-17T01:37:22.225Z,94112.48
2023-08-17T01:38:00.410Z,94114.27
2023-08-17T01:38:35.505Z,94113.69
2023-08-17T01:39:09.709Z,94115.23
2023-08-17T01:39:46.500Z,94116.14
2023-08-17T01:40:20.831Z,94115.07
2023-08-17T01:40:54.955Z,94118.10
2023-08-17T01:41:28.993Z,94114.86
2023-08-17T01:42:05.773Z,94117.89
2023-08-17T01:42:40.619Z,94117.14
2023-08-17T01:43:15.003Z,94120.21
2023-08-17T01:43:52.418Z,94120.11
2023-08-17T01:44:27.433Z,94121.91
2023-08-17T01:45:00.817Z,94120.80
2023-08-17T01:45:34.295Z,94119.95
2023-08-17T01:46:08.921Z,94119.42
2023-08-17T01:46:43.389Z,94119.00
2023-08-17T01:47:16.794Z,94120.85
2023-08-17T01:47:50.775Z,94118.79
2023-08-17T01:48:24.098Z,94115.71
2023-08-17T01:48:57.682Z,94112.21
2023-08-17T01:50:48.521Z,94111.80
2023-08-17T01:51:22.025Z,94115.36
2023-08-17T01:51:55.444Z,94114.04
2023-08-17T01:52:29.750Z,94111.52
2023-08-17T01:53:03.422Z,94112.95
2023-08-17T01:53:37.033Z,94113.90
2023-08-17T01:54:10.504Z,94109.72
2023-08-17T01:54:43.923Z,94111.03
2023-08-17T01:55:18.677Z,94112.10
2023-08-17T01:55:54.320Z,94110.77
2023-08-17T01:56:28.375Z,94113.27
2023-08-17T01:57:01.982Z,94110.56
2023-08-17T01:57:36.929Z,94109.04
2023-08-17T01:58:10.418Z,94109.80
2023-08-17T01:58:43.884Z,94113.24
2023-08-17T01:59:18.007Z,94110.54
2023-08-17T01:59:51.353Z,94108.52
2023-08-17T02:00:24.760Z,94108.15
2023-08-17T02:00:58.479Z,94109.59
2023-08-17T02:01:32.735Z,94110.59
2023-08-17T02:02:06.101Z,94109.64
2023-08-17T02:02:39.564Z,94107.20
2023-08-17T02:03:13.169Z,94108.64
2023-08-17T02:03:46.737Z,94107.36
2023-08-17T02:04:20.145Z,94109.53
2023-08-17T02:04:53.760Z,94108.79
2023-08-17T02:05:29.542Z,94111.91
2023-08-17T02:06:03.148Z,94110.95
2023-08-17T02:06:36.694Z,94112.34
2023-08-17T02:07:10.342Z,94112.71
2023-08-17T02:07:43.744Z,94114.36
2023-08-17T02:08:17.150Z,94115.04
2023-08-17T02:08:52.130Z,94115.89
2023-08-17T02:09:26.530Z,94116.41
2023-08-17T02:10:00.445Z,94117.17
2023-08-17T02:10:34.304Z,94115.59
2023-08-17T02:11:07.742Z,94112.26
2023-08-17T02:11:41.305Z,94117.02
2023-08-17T02:12:14.848Z,94115.44
2023-08-17T02:12:48.821Z,94119.71
2023-08-17T02:13:22.681Z,94116.66
2023-08-17T02:14:01.688Z,94116.39
2023-08-17T02:14:35.387Z,94117.88
2023-08-17T02:15:09.411Z,94115.02
2023-08-17T02:15:43.069Z,94115.65
2023-08-17T02:16:16.581Z,94118.67
2023-08-17T02:16:50.383Z,94120.16
2023-08-17T02:17:24.252Z,94121.61
2023-08-17T02:18:02.790Z,94122.83
2023-08-17T02:18:36.474Z,94122.88
2023-08-17T02:19:09.824Z,94126.02
2023-08-17T02:19:43.750Z,94123.25
2023-08-17T02:20:18.495Z,94120.88
2023-08-17T02:20:51.757Z,94126.86
2023-08-17T02:21:25.340Z,94125.58
2023-08-17T02:21:58.930Z,94126.96
2023-08-17T02:22:32.316Z,94123.09
2023-08-17T02:23:05.549Z,94125.86
2023-08-17T02:23:38.834Z,94128.66
2023-08-17T02:24:12.144Z,94126.91
2023-08-17T02:24:45.415Z,94126.80
2023-08-17T02:25:18.811Z,94131.94
2023-08-17T02:25:52.104Z,94130.47
2023-08-17T02:26:27.546Z,94130.10
2023-08-17T02:27:00.894Z,94133.60
2023-08-17T02:27:34.376Z,94131.63
2023-08-17T02:28:07.758Z,94134.16
2023-08-17T02:28:41.224Z,94138.87
2023-08-17T02:29:14.488Z,94138.14
2023-08-17T02:29:47.731Z,94133.10
2023-08-17T02:30:21.153Z,94131.77
2023-08-17T02:30:58.693Z,94130.87
2023-08-17T02:31:34.429Z,94131.67
2023-08-17T02:32:07.855Z,94128.33
2023-08-17T02:32:41.281Z,94122.46
2023-08-17T02:33:14.688Z,94122.31
2023-08-17T02:33:48.471Z,94121.35
2023-08-17T02:34:21.807Z,94119.17
2023-08-17T02:34:54.999Z,94119.65
2023-08-17T02:35:28.400Z,94119.39
2023-08-17T02:36:02.740Z,94116.58
2023-08-17T02:36:36.799Z,94117.95
2023-08-17T02:37:10.253Z,94116.84
2023-08-17T02:37:43.720Z,94114.32
2023-08-17T02:38:17.694Z,94118.19
2023-08-17T02:38:51.384Z,94115.48
2023-08-17T02:39:24.803Z,94120.27
2023-08-17T02:39:58.609Z,94119.83
2023-08-17T02:40:32.126Z,94119.80
2023-08-17T02:41:05.805Z,94120.23
2023-08-17T02:41:39.269Z,94119.21
2023-08-17T02:42:12.581Z,94124.04
2023-08-17T02:42:46.084Z,94122.46
2023-08-17T02:43:19.720Z,94122.61
2023-08-17T02:43:53.484Z,94123.57
2023-08-17T02:44:28.844Z,94126.21
2023-08-17T02:45:02.221Z,94124.56
2023-08-17T02:45:36.680Z,94120.54
2023-08-17T02:46:10.963Z,94124.75
2023-08-17T02:46:44.365Z,94123.29
2023-08-17T02:47:17.828Z,94124.25
2023-08-17T02:47:51.384Z,94123.25
2023-08-17T02:48:24.886Z,94128.01
2023-08-17T02:48:58.419Z,94127.70
2023-08-17T02:49:31.792Z,94123.95
2023-08-17T02:50:06.021Z,94127.71
2023-08-17T02:50:41.364Z,94125.91
2023-08-17T02:51:15.353Z,94122.11
2023-08-17T02:51:48.840Z,94122.96
2023-08-17T02:52:22.289Z,94122.55
2023-08-17T02:52:55.891Z,94124.77
2023-08-17T02:53:29.508Z,94121.89
2023-08-17T02:54:03.521Z,94125.98
2023-08-17T02:54:37.077Z,94121.36
2023-08-17T02:55:10.764Z,94124.44
2023-08-17T02:55:44.190Z,94124.08
2023-08-17T02:56:17.661Z,94126.20
2023-08-17T02:56:50.999Z,94118.90
2023-08-17T02:57:25.796Z,94124.02
2023-08-17T02:57:59.368Z,94119.85
2023-08-17T02:58:32.875Z,94121.86
2023-08-17T02:59:06.311Z,94120.72
2023-08-17T02:59:39.665Z,94120.34
2023-08-17T03:00:13.781Z,94115.95
2023-08-17T03:00:47.136Z,94118.33
2023-08-17T03:01:21.114Z,94119.17
2023-08-17T03:01:57.365Z,94119.64
2023-08-17T03:02:30.861Z,94118.32
2023-08-17T03:03:04.587Z,94114.58
2023-08-17T03:03:38.408Z,94117.38
2023-08-17T03:04:11.746Z,94115.42
2023-08-17T03:04:45.270Z,94117.48
2023-08-17T03:05:18.859Z,94116.27
2023-08-17T03:05:52.286Z,94118.23
2023-08-17T03:06:25.829Z,94122.77
2023-08-17T03:06:59.209Z,94118.17
2023-08-17T03:07:32.816Z,94119.07
2023-08-17T03:08:06.759Z,94119.57
2023-08-17T03:08:40.235Z,94120.99
2023-08-17T03:09:13.594Z,94122.85
2023-08-17T03:09:47.359Z,94117.70
2023-08-17T03:10:20.879Z,94119.19
2023-08-17T03:10:54.405Z,94119.93
2023-08-17T03:11:28.117Z,94120.83
2023-08-17T03:12:01.456Z,94118.45
2023-08-17T03:12:35.142Z,94117.75
2023-08-17T03:13:08.623Z,94120.66
2023-08-17T03:13:42.195Z,94121.89
2023-08-17T03:14:15.607Z,94119.30
2023-08-17T03:14:50.341Z,94121.33
2023-08-17T03:15:23.845Z,94120.26
2023-08-17T03:15:57.397Z,94119.63
2023-08-17T03:16:31.693Z,94117.98
2023-08-17T03:17:06.909Z,94114.61
2023-08-17T03:17:40.357Z,94111.80
2023-08-17T03:18:13.744Z,94112.38
2023-08-17T03:18:47.218Z,94111.54
2023-08-17T03:19:20.604Z,94107.60
2023-08-17T03:19:53.872Z,94107.40
2023-08-17T03:20:28.164Z,94112.02
2023-08-17T03:21:01.477Z,94108.61
2023-08-17T03:21:35.584Z,94106.08
2023-08-17T03:22:08.884Z,94106.60
2023-08-17T03:22:42.151Z,94105.64
2023-08-17T03:23:16.026Z,94109.62
2023-08-17T03:23:50.407Z,94109.04
2023-08-17T03:24:23.837Z,94108.98
2023-08-17T03:24:58.590Z,94109.04
2023-08-17T03:25:31.805Z,94107.03
2023-08-17T03:26:05.445Z,94110.52
2023-08-17T03:26:38.857Z,94105.44
2023-08-17T03:27:14.629Z,94110.37
2023-08-17T03:27:48.244Z,94108.57
2023-08-17T03:28:21.901Z,94103.96
2023-08-17T03:28:55.307Z,94104.96
2023-08-17T03:29:28.719Z,94104.84
2023-08-17T03:30:02.247Z,94101.61
2023-08-17T03:30:36.617Z,94106.91
2023-08-17T03:31:10.066Z,94107.42
2023-08-17T03:31:43.727Z,94107.12
2023-08-17T03:32:17.014Z,94107.86
2023-08-17T03:32:50.358Z,94110.14
2023-08-17T03:33:23.778Z,94110.84
2023-08-17T03:33:57.200Z,94110.67
2023-08-17T03:34:30.615Z,94107.81
2023-08-17T03:35:04.842Z,94107.66
2023-08-17T03:35:38.360Z,94107.23
2023-08-17T03:36:11.752Z,94105.58
2023-08-17T03:36:45.394Z,94102.04
2023-08-17T03:37:18.948Z,94106.59
2023-08-17T03:37:52.536Z,94103.67
2023-08-17T03:38:28.660Z,94104.48
2023-08-17T03:39:02.306Z,94105.01
2023-08-17T03:39:35.797Z,94106.43
2023-08-17T03:40:09.705Z,94105.39
2023-08-17T03:40:42.996Z,94106.64
2023-08-17T03:41:16.311Z,94103.58
2023-08-17T03:41:50.114Z,94102.09
2023-08-17T03:42:23.515Z,94106.38
2023-08-17T03:42:56.772Z,94104.54
2023-08-17T03:43:30.163Z,94106.65
2023-08-17T03:44:05.009Z,94107.39
2023-08-17T03:44:38.442Z,94104.26
2023-08-17T03:45:12.417Z,94102.83
2023-08-17T03:45:45.737Z,94103.52
2023-08-17T03:46:19.103Z,94104.95
2023-08-17T03:46:52.390Z,94103.67
2023-08-17T03:47:25.958Z,94100.13
2023-08-17T03:47:59.497Z,94103.63
2023-08-17T03:48:32.806Z,94094.84
2023-08-17T03:49:06.113Z,94100.55
2023-08-17T03:49:39.452Z,94096.58
2023-08-17T03:50:12.914Z,94099.17
2023-08-17T03:50:46.257Z,94100.88
2023-08-17T03:51:20.305Z,94102.21
2023-08-17T03:51:53.531Z,94102.63
2023-08-17T03:52:26.897Z,94104.06
2023-08-17T03:53:00.285Z,94102.05
2023-08-17T03:53:33.743Z,94105.96
2023-08-17T03:54:07.187Z,94105.27
2023-08-17T03:54:40.445Z,94103.91
2023-08-17T03:55:13.768Z,94108.35
2023-08-17T03:55:51.376Z,94107.56
2023-08-17T03:56:24.809Z,94107.55
2023-08-17T03:56:58.008Z,94108.08
2023-08-17T03:57:34.204Z,94110.52
2023-08-17T03:58:08.012Z,94109.51
2023-08-17T03:58:43.720Z,94110.31
2023-08-17T03:59:17.206Z,94109.61
2023-08-17T03:59:50.517Z,94110.52
2023-08-17T04:00:24.189Z,94103.38
2023-08-17T04:01:01.575Z,94110.41
2023-08-17T04:01:35.852Z,94108.45
2023-08-17T04:02:09.201Z,94109.69
2023-08-17T04:02:42.585Z,94108.78
2023-08-17T04:03:18.345Z,94106.40
2023-08-17T04:03:51.606Z,94107.61
2023-08-17T04:04:24.921Z,94109.77
2023-08-17T04:04:58.624Z,94108.20
2023-08-17T04:05:32.059Z,94110.13
2023-08-17T04:06:07.902Z,94107.16
2023-08-17T04:06:42.198Z,94111.21
2023-08-17T04:07:23.157Z,94111.97
2023-08-17T04:08:02.941Z,94112.08
2023-08-17T04:08:36.443Z,94120.59
2023-08-17T04:09:10.451Z,94117.48
2023-08-17T04:09:46.258Z,94117.00
2023-08-17T04:10:19.567Z,94119.91
2023-08-17T04:10:52.891Z,94118.21
2023-08-17T04:11:26.187Z,94117.38
2023-08-17T04:11:59.608Z,94119.64
2023-08-17T04:12:32.998Z,94119.00
2023-08-17T04:13:06.343Z,94122.56
2023-08-17T04:13:39.728Z,94122.30
2023-08-17T04:14:13.651Z,94123.03
2023-08-17T04:14:47.204Z,94126.36
2023-08-17T04:15:20.564Z,94129.20
2023-08-17T04:15:54.195Z,94126.40
2023-08-17T04:16:27.501Z,94127.79
2023-08-17T04:17:00.970Z,94126.79
2023-08-17T04:17:34.686Z,94128.38
2023-08-17T04:18:08.850Z,94128.11
2023-08-17T04:18:42.223Z,94126.42
2023-08-17T04:19:15.676Z,94126.93
2023-08-17T04:19:49.316Z,94126.02
2023-08-17T04:20:24.061Z,94127.09
2023-08-17T04:20:57.397Z,94123.45
2023-08-17T04:21:31.334Z,94119.21
2023-08-17T04:22:05.672Z,94119.06
2023-08-17T04:22:39.082Z,94120.64
2023-08-17T04:23:12.329Z,94119.64
2023-08-17T04:23:46.266Z,94120.66
2023-08-17T04:24:19.551Z,94120.52
2023-08-17T04:24:52.833Z,94116.72
2023-08-17T04:25:26.174Z,94118.11
2023-08-17T04:25:59.594Z,94120.27
2023-08-17T04:26:35.287Z,94115.30
2023-08-17T04:27:08.682Z,94112.69
2023-08-17T04:27:41.943Z,94117.67
2023-08-17T04:28:16.687Z,94120.74
2023-08-17T04:28:50.650Z,94119.36
2023-08-17T04:29:23.947Z,94116.20
2023-08-17T04:29:58.901Z,94116.73
2023-08-17T04:30:32.814Z,94119.30
2023-08-17T04:31:07.360Z,94115.66
2023-08-17T04:31:42.825Z,94118.50
2023-08-17T04:32:17.623Z,94117.55
2023-08-17T04:32:53.942Z,94120.58
2023-08-17T04:33:27.422Z,94118.67
2023-08-17T04:34:01.124Z,94118.41
2023-08-17T04:34:34.994Z,94117.89
2023-08-17T04:35:08.694Z,94123.19
2023-08-17T04:35:42.229Z,94121.55
2023-08-17T04:36:15.537Z,94124.39
2023-08-17T04:36:49.102Z,94125.96
2023-08-17T04:37:23.298Z,94124.42
2023-08-17T04:37:56.857Z,94125.07
2023-08-17T04:38:30.202Z,94131.10
2023-08-17T04:39:05.712Z,94130.73
2023-08-17T04:39:39.280Z,94126.50
2023-08-17T04:40:12.678Z,94130.00
2023-08-17T04:40:46.180Z,94131.16
2023-08-17T04:41:19.936Z,94130.82
2023-08-17T04:41:54.971Z,94133.05
2023-08-17T04:42:32.557Z,94130.35
2023-08-17T04:43:05.838Z,94130.55
2023-08-17T04:43:39.226Z,94135.11
2023-08-17T04:44:12.784Z,94132.48
2023-08-17T04:44:45.988Z,94133.23
2023-08-17T04:45:19.347Z,94132.69
2023-08-17T04:45:52.929Z,94134.38
2023-08-17T04:46:26.486Z,94134.16
2023-08-17T04:46:59.844Z,94131.25
2023-08-17T04:47:33.341Z,94132.36
2023-08-17T04:48:09.598Z,94135.17
2023-08-17T04:48:43.288Z,94134.53
2023-08-17T04:49:16.725Z,94135.88
2023-08-17T04:49:50.718Z,94134.59
2023-08-17T04:50:24.124Z,94135.11
2023-08-17T04:50:57.945Z,94137.02
2023-08-17T04:51:32.048Z,94137.92
2023-08-17T04:52:08.121Z,94135.32
2023-08-17T04:52:41.525Z,94134.64
2023-08-17T04:53:14.928Z,94135.70
2023-08-17T04:53:48.305Z,94138.35
2023-08-17T04:54:22.379Z,94136.44
2023-08-17T04:54:55.794Z,94139.71
2023-08-17T04:55:29.343Z,94137.38
2023-08-17T04:56:03.998Z,94137.75
2023-08-17T04:56:37.869Z,94143.90
2023-08-17T04:57:11.873Z,94143.09
2023-08-17T04:57:45.134Z,94142.88
2023-08-17T04:58:19.424Z,94145.25
2023-08-17T04:58:52.709Z,94145.95
2023-08-17T04:59:26.170Z,94148.43
2023-08-17T04:59:59.645Z,94147.27
2023-08-17T05:00:33.031Z,94151.30
2023-08-17T05:01:06.489Z,94151.77
2023-08-17T05:01:42.437Z,94153.77
2023-08-17T05:02:16.230Z,94152.12
2023-08-17T05:02:49.650Z,94151.77
2023-08-17T05:03:32.815Z,94147.68
2023-08-17T05:04:07.098Z,94149.91
2023-08-17T05:04:41.227Z,94151.50
2023-08-17T05:05:14.510Z,94146.10
2023-08-17T05:05:47.867Z,94148.75
2023-08-17T05:06:21.114Z,94145.30
2023-08-17T05:06:54.343Z,94144.75
2023-08-17T05:07:27.808Z,94145.77
2023-08-17T05:08:01.512Z,94144.13
2023-08-17T05:08:35.150Z,94145.52
2023-08-17T05:09:08.718Z,94141.35
2023-08-17T05:09:42.350Z,94145.54
2023-08-17T05:10:15.716Z,94144.37
2023-08-17T05:10:49.694Z,94143.05
2023-08-17T05:11:23.142Z,94143.63
2023-08-17T05:11:56.923Z,94145.80
2023-08-17T05:12:30.334Z,94145.45
2023-08-17T05:13:04.168Z,94144.08
2023-08-17T05:13:38.031Z,94146.50
2023-08-17T05:14:11.698Z,94148.34
2023-08-17T05:14:45.365Z,94146.96
2023-08-17T05:15:18.862Z,94148.77
2023-08-17T05:15:52.195Z,94150.77
2023-08-17T05:16:26.163Z,94152.31
2023-08-17T05:16:59.518Z,94146.59
2023-08-17T05:17:32.934Z,94147.58
2023-08-17T05:18:06.697Z,94148.75
2023-08-17T05:18:40.063Z,94148.70
2023-08-17T05:19:14.475Z,94149.44
2023-08-17T05:19:48.009Z,94148.12
2023-08-17T05:20:22.118Z,94147.88
2023-08-17T05:20:55.934Z,94146.17
2023-08-17T05:21:29.258Z,94149.84
2023-08-17T05:22:02.534Z,94146.02
2023-08-17T05:22:36.037Z,94149.20
2023-08-17T05:23:09.542Z,94149.48
2023-08-17T05:23:42.947Z,94149.15
2023-08-17T05:24:16.252Z,94152.28
2023-08-17T05:24:49.798Z,94148.30
2023-08-17T05:25:26.225Z,94148.67
2023-08-17T05:25:59.795Z,94150.42
2023-08-17T05:26:33.340Z,94151.41
2023-08-17T05:27:07.318Z,94147.54
2023-08-17T05:27:40.938Z,94151.09
2023-08-17T05:28:15.125Z,94150.30
2023-08-17T05:28:48.540Z,94149.77
2023-08-17T05:29:21.896Z,94150.91
2023-08-17T05:29:55.631Z,94150.74
2023-08-17T05:30:29.161Z,94150.90
2023-08-17T05:31:08.458Z,94148.08
2023-08-17T05:31:44.153Z,94149.34
2023-08-17T05:32:17.524Z,94147.66
2023-08-17T05:32:50.887Z,94148.09
2023-08-17T05:33:25.213Z,94146.80
2023-08-17T05:33:58.726Z,94147.66
2023-08-17T05:34:32.260Z,94143.89
2023-08-17T05:35:05.802Z,94144.36
2023-08-17T05:35:39.340Z,94148.48
2023-08-17T05:36:14.362Z,94144.80
2023-08-17T05:36:47.738Z,94143.91
2023-08-17T05:37:21.052Z,94146.11
2023-08-17T05:37:56.676Z,94149.56
2023-08-17T05:38:30.085Z,94146.95
2023-08-17T05:39:03.935Z,94150.37
2023-08-17T05:39:37.593Z,94148.66
2023-08-17T05:40:12.008Z,94149.02
2023-08-17T05:40:45.345Z,94150.52
2023-08-17T05:41:18.886Z,94152.20
2023-08-17T05:41:52.149Z,94151.23
2023-08-17T05:42:25.630Z,94146.54
2023-08-17T05:42:58.961Z,94148.70
2023-08-17T05:43:32.338Z,94149.95
2023-08-17T05:44:07.937Z,94150.20
2023-08-17T05:44:41.248Z,94151.66
2023-08-17T05:45:14.743Z,94150.59
2023-08-17T05:45:48.049Z,94149.70
2023-08-17T05:46:21.932Z,94149.73
2023-08-17T05:46:55.308Z,94151.67
2023-08-17T05:47:28.910Z,94152.51
2023-08-17T05:48:02.538Z,94151.98
2023-08-17T05:48:36.253Z,94150.72
2023-08-17T05:49:09.613Z,94152.30
2023-08-17T05:49:43.031Z,94152.59
2023-08-17T05:50:16.418Z,94152.48
2023-08-17T05:50:49.613Z,94151.71
2023-08-17T05:51:22.903Z,94151.00
2023-08-17T05:51:56.203Z,94153.67
2023-08-17T05:52:29.632Z,94150.95
2023-08-17T05:53:03.002Z,94150.30
2023-08-17T05:53:36.492Z,94151.97
2023-08-17T05:54:09.715Z,94150.38
2023-08-17T05:54:44.057Z,94149.65
2023-08-17T05:55:17.647Z,94149.80
2023-08-17T05:55:51.232Z,94150.09
2023-08-17T05:56:24.555Z,94150.77
2023-08-17T05:56:57.865Z,94151.44
2023-08-17T05:57:31.204Z,94152.68
2023-08-17T05:58:05.269Z,94157.45
2023-08-17T05:58:38.544Z,94153.70
2023-08-17T05:59:12.371Z,94155.59
2023-08-17T05:59:45.747Z,94157.39
2023-08-17T06:00:19.118Z,94158.79
2023-08-17T06:00:52.616Z,94159.24
2023-08-17T06:01:26.003Z,94161.70
2023-08-17T06:01:59.309Z,94159.46
2023-08-17T06:02:32.669Z,94161.23
2023-08-17T06:03:06.050Z,94161.59
2023-08-17T06:03:39.834Z,94164.40
2023-08-17T06:04:13.062Z,94161.65
2023-08-17T06:04:46.375Z,94169.02
2023-08-17T06:05:19.989Z,94167.46
2023-08-17T06:05:54.495Z,94167.86
2023-08-17T06:06:27.713Z,94169.17
2023-08-17T06:07:01.013Z,94165.14
2023-08-17T06:07:34.402Z,94164.00
2023-08-17T06:08:07.876Z,94161.83
2023-08-17T06:08:41.252Z,94161.95
2023-08-17T06:09:15.466Z,94158.48
2023-08-17T06:09:48.819Z,94156.66
2023-08-17T06:10:26.228Z,94158.36
2023-08-17T06:10:59.668Z,94157.12
2023-08-17T06:11:32.938Z,94153.82
2023-08-17T06:12:06.498Z,94150.12
2023-08-17T06:12:39.757Z,94149.79
2023-08-17T06:13:12.991Z,94150.98
2023-08-17T06:13:46.281Z,94150.52
2023-08-17T06:14:19.692Z,94151.03
2023-08-17T06:14:52.929Z,94149.28
2023-08-17T06:15:26.409Z,94144.08
2023-08-17T06:15:59.626Z,94145.73
2023-08-17T06:16:33.168Z,94140.68
2023-08-17T06:17:06.535Z,94141.63
2023-08-17T06:17:40.524Z,94140.47
2023-08-17T06:18:13.914Z,94143.91
2023-08-17T06:18:47.321Z,94143.37
2023-08-17T06:19:20.550Z,94143.63
2023-08-17T06:19:53.884Z,94145.29
2023-08-17T06:20:27.330Z,94146.50
2023-08-17T06:21:00.648Z,94146.79
2023-08-17T06:21:33.897Z,94144.69
2023-08-17T06:22:09.237Z,94143.96
2023-08-17T06:22:42.661Z,94142.52
2023-08-17T06:23:16.109Z,94143.58
2023-08-17T06:23:49.473Z,94144.86
2023-08-17T06:24:22.708Z,94142.07
2023-08-17T06:24:56.158Z,94145.73
2023-08-17T06:25:29.516Z,94145.35
2023-08-17T06:26:02.867Z,94143.98
2023-08-17T06:26:36.266Z,94146.25
2023-08-17T06:27:09.483Z,94141.99
2023-08-17T06:27:45.230Z,94141.33
2023-08-17T06:28:18.577Z,94141.77
2023-08-17T06:28:51.887Z,94141.73
2023-08-17T06:29:25.195Z,94141.86
2023-08-17T06:29:58.545Z,94141.64
2023-08-17T06:30:31.859Z,94145.35
2023-08-17T06:31:05.292Z,94142.86
2023-08-17T06:31:38.969Z,94141.62
2023-08-17T06:32:12.533Z,94141.41
2023-08-17T06:32:46.157Z,94141.98
2023-08-17T06:33:20.854Z,94142.14
2023-08-17T06:33:55.114Z,94142.89
2023-08-17T06:34:28.487Z,94142.65
2023-08-17T06:35:02.297Z,94140.66
2023-08-17T06:35:35.757Z,94144.05
2023-08-17T06:36:09.169Z,94142.02
2023-08-17T06:36:42.750Z,94145.15
2023-08-17T06:37:16.262Z,94145.17
2023-08-17T06:37:49.620Z,94145.13
2023-08-17T06:38:22.961Z,94146.05
2023-08-17T06:38:56.424Z,94144.09
2023-08-17T06:39:29.780Z,94144.26
2023-08-17T06:40:06.761Z,94146.92
2023-08-17T06:40:40.101Z,94144.88
2023-08-17T06:41:13.306Z,94143.45
2023-08-17T06:41:46.707Z,94138.90
2023-08-17T06:42:20.009Z,94140.25
2023-08-17T06:42:55.594Z,94140.90
2023-08-17T06:43:28.846Z,94144.20
2023-08-17T06:44:02.179Z,94142.73